Time;durP1;ratioP1;P1;durP2;ratioP2;P2;SDS_P1;SDS_P2;PMS_P1;PMS_P2;Temp;Humidity;BMP_temperature;BMP_pressure;BME280_temperature;BME280_humidity;BME280_pressure;Samples;Min_cycle;Max_cycle;Signal;HPM_P1;HPM_P2
2021/04/23 00:01:31;;;;;;;3.70;0.78;;;;;;;8.11;86.03;100657.14;1823963;78;22094;-42
2021/04/23 00:04:02;;;;;;;0.00;0.00;;;;;;;8.08;86.24;100658.18;1817295;78;21129;-43
2021/04/23 00:06:37;;;;;;;0.30;0.30;;;;;;;8.06;86.54;100662.54;1817598;78;21416;-41
2021/04/23 00:09:14;;;;;;;0.10;0.10;;;;;;;8.06;86.78;100654.37;1791628;78;21146;-42
2021/04/23 00:12:06;;;;;;;0.23;0.20;;;;;;;8.03;86.87;100649.42;1785545;80;21588;-41
2021/04/23 00:14:45;;;;;;;0.62;0.62;;;;;;;8.03;87.01;100654.87;1785252;80;21126;-42
2021/04/23 00:17:14;;;;;;;1.07;0.28;;;;;;;8.00;87.11;100652.66;1791128;78;21378;-41
2021/04/23 00:19:41;;;;;;;1.85;0.65;;;;;;;7.97;87.29;100651.83;1817493;78;22020;-42
2021/04/23 00:22:09;;;;;;;0.75;0.20;;;;;;;7.96;87.46;100646.09;1817686;78;21106;-41
2021/04/23 00:24:37;;;;;;;0.10;0.10;;;;;;;7.92;87.62;100649.06;1817523;78;21120;-41
2021/04/23 00:27:06;;;;;;;1.22;0.68;;;;;;;7.89;87.66;100649.58;1793379;78;21738;-41
2021/04/23 00:29:35;;;;;;;1.62;1.15;;;;;;;7.86;87.88;100651.43;1785190;80;21734;-41
2021/04/23 00:34:49;;;;;;;0.98;0.45;;;;;;;7.81;88.22;100647.30;1786450;78;21184;-40
2021/04/23 00:37:16;;;;;;;0.42;0.42;;;;;;;7.80;88.44;100641.59;1789785;78;22057;-41
2021/04/23 00:39:44;;;;;;;0.37;0.37;;;;;;;7.79;88.57;100631.77;1817619;78;21129;-41
2021/04/23 00:42:11;;;;;;;0.37;0.37;;;;;;;7.80;88.93;100630.70;1817478;78;21542;-43
2021/04/23 00:44:39;;;;;;;0.72;0.72;;;;;;;7.81;89.08;100636.41;1786194;78;21114;-41
2021/04/23 00:47:06;;;;;;;0.47;0.47;;;;;;;7.83;89.20;100641.06;1808813;77;21134;-42
2021/04/23 00:49:34;;;;;;;1.55;0.78;;;;;;;7.83;89.36;100639.70;1817412;78;21089;-41
2021/04/23 00:52:02;;;;;;;0.33;0.33;;;;;;;7.86;89.43;100639.19;1769472;80;21564;-42
2021/04/23 00:54:30;;;;;;;0.40;0.40;;;;;;;7.86;89.46;100633.23;1786571;78;21088;-41
2021/04/23 00:56:58;;;;;;;0.72;0.72;;;;;;;7.87;89.52;100629.97;1785443;80;21599;-42
2021/04/23 00:59:26;;;;;;;0.15;0.15;;;;;;;7.87;89.57;100640.84;1787191;78;21134;-43
2021/04/23 01:02:07;;;;;;;1.42;0.78;;;;;;;7.86;89.65;100633.23;1816812;78;21117;-41
2021/04/23 01:04:35;;;;;;;0.10;0.10;;;;;;;7.87;89.70;100640.84;1826916;78;21141;-42
2021/04/23 01:07:05;;;;;;;0.30;0.30;;;;;;;7.87;89.83;100642.20;1827031;78;21141;-41
2021/04/23 01:09:32;;;;;;;0.25;0.25;;;;;;;7.88;89.96;100646.02;1803105;78;21129;-42
2021/04/23 01:12:00;;;;;;;1.35;0.70;;;;;;;7.91;89.92;100646.88;1794356;79;21544;-42
2021/04/23 01:14:28;;;;;;;0.10;0.10;;;;;;;7.92;89.92;100639.53;1794321;79;21529;-41
2021/04/23 01:16:55;;;;;;;0.28;0.28;;;;;;;7.93;89.92;100639.80;1801672;78;21547;-40
2021/04/23 01:19:25;;;;;;;0.20;0.20;;;;;;;7.92;89.91;100641.71;1826747;78;21114;-41
2021/04/23 01:21:53;;;;;;;0.20;0.20;;;;;;;7.92;90.00;100636.81;1826599;78;21173;-41
2021/04/23 01:24:21;;;;;;;1.10;0.93;;;;;;;7.93;90.01;100624.84;1826574;78;21109;-42
2021/04/23 01:26:52;;;;;;;0.75;0.75;;;;;;;7.95;90.06;100628.13;1798604;78;21145;-40
2021/04/23 01:29:23;;;;;;;3.00;1.32;;;;;;;7.98;90.13;100624.88;1793829;79;21536;-41
2021/04/23 01:31:54;;;;;;;0.10;0.10;;;;;;;8.01;90.12;100626.27;1793840;79;21098;-41
2021/04/23 01:34:30;;;;;;;0.78;0.78;;;;;;;8.04;90.15;100629.31;1808619;78;21648;-42
2021/04/23 01:36:59;;;;;;;0.40;0.40;;;;;;;8.07;90.07;100629.34;1801772;78;21161;-41
2021/04/23 01:39:28;;;;;;;0.15;0.15;;;;;;;8.10;90.06;100638.34;1794190;78;21655;-40
2021/04/23 01:41:56;;;;;;;0.72;0.72;;;;;;;8.11;90.08;100640.81;1795229;78;21300;-40
2021/04/23 01:44:23;;;;;;;0.60;0.50;;;;;;;8.14;90.10;100645.73;1794471;78;21106;-41
2021/04/23 01:46:52;;;;;;;0.10;0.10;;;;;;;8.17;90.14;100631.59;1794005;79;21118;-40
2021/04/23 01:49:20;;;;;;;0.53;0.30;;;;;;;8.21;90.38;100642.81;1793940;79;21122;-42
2021/04/23 01:51:57;;;;;;;1.45;1.35;;;;;;;8.26;90.49;100628.39;1795105;78;21173;-41
2021/04/23 01:54:26;;;;;;;2.37;1.07;;;;;;;8.29;90.62;100636.06;1794119;79;21165;-42
2021/04/23 01:56:54;;;;;;;0.90;0.90;;;;;;;8.32;90.79;100604.23;1794208;79;21504;-42
2021/04/23 01:59:22;;;;;;;2.30;0.62;;;;;;;8.34;91.09;100583.01;1802105;78;21117;-41
2021/04/23 02:01:51;;;;;;;0.60;0.60;;;;;;;8.33;91.30;100565.02;1826340;78;21101;-42
2021/04/23 02:04:19;;;;;;;1.00;0.80;;;;;;;8.31;91.54;100551.68;1817302;78;21166;-41
2021/04/23 02:06:49;;;;;;;0.28;0.28;;;;;;;8.31;91.85;100527.17;1816803;78;21153;-42
2021/04/23 02:09:16;;;;;;;0.30;0.30;;;;;;;8.30;92.16;100526.06;1788711;78;21118;-41
2021/04/23 02:11:45;;;;;;;0.08;0.08;;;;;;;8.29;92.27;100521.72;1785185;80;21121;-41
2021/04/23 02:14:13;;;;;;;1.42;1.32;;;;;;;8.28;92.38;100541.29;1785162;78;21146;-42
2021/04/23 02:16:41;;;;;;;1.65;0.93;;;;;;;8.27;92.65;100579.69;1796427;78;21531;-42
2021/04/23 02:19:10;;;;;;;1.00;1.00;;;;;;;8.24;93.30;100592.46;1817209;78;21592;-41
2021/04/23 02:21:37;;;;;;;0.13;0.13;;;;;;;8.21;93.58;100607.42;1817488;78;21121;-41
2021/04/23 02:24:06;;;;;;;0.95;0.93;;;;;;;8.21;93.81;100622.91;1797684;78;21133;-41
2021/04/23 02:26:35;;;;;;;1.07;1.02;;;;;;;8.21;93.91;100633.80;1815516;78;21169;-41
2021/04/23 02:29:08;;;;;;;0.50;0.50;;;;;;;8.21;94.05;100636.00;1786264;78;21122;-40
2021/04/23 02:31:37;;;;;;;0.67;0.40;;;;;;;8.24;94.09;100619.69;1794596;78;21185;-44
2021/04/23 02:34:07;;;;;;;3.92;1.30;;;;;;;8.26;94.11;100621.59;1802571;78;21106;-40
2021/04/23 02:36:35;;;;;;;1.10;0.70;;;;;;;8.28;94.23;100631.68;1817186;78;21078;-41
2021/04/23 02:39:05;;;;;;;0.50;0.33;;;;;;;8.28;94.35;100633.86;1810407;78;21098;-42
2021/04/23 02:41:32;;;;;;;1.57;0.70;;;;;;;8.30;94.46;100632.25;1816031;78;21106;-41
2021/04/23 02:44:00;;;;;;;0.85;0.85;;;;;;;8.34;94.52;100630.66;1817416;78;20979;-41
2021/04/23 02:46:27;;;;;;;1.87;1.25;;;;;;;8.34;94.57;100640.19;1817408;78;21498;-41
2021/04/23 02:48:55;;;;;;;0.20;0.20;;;;;;;8.34;94.59;100642.91;1817562;78;21158;-42
2021/04/23 02:51:28;;;;;;;1.05;1.05;;;;;;;8.33;94.58;100638.53;1816368;78;21122;-42
2021/04/23 02:53:57;;;;;;;1.15;0.88;;;;;;;8.33;94.58;100648.06;1811153;78;21158;-41
2021/04/23 02:56:25;;;;;;;0.82;0.82;;;;;;;8.29;94.59;100646.95;1785360;80;21145;-41
2021/04/23 02:58:53;;;;;;;2.15;1.52;;;;;;;8.26;94.69;100646.09;1786538;78;21105;-43
2021/04/23 03:01:24;;;;;;;0.53;0.53;;;;;;;8.24;94.85;100641.47;1785123;80;21142;-41
2021/04/23 03:03:53;;;;;;;0.53;0.53;;;;;;;8.24;95.02;100632.75;1785385;78;21138;-42
2021/04/23 03:06:21;;;;;;;1.42;0.37;;;;;;;8.26;95.13;100655.62;1785476;80;21131;-41
2021/04/23 03:08:49;;;;;;;0.42;0.42;;;;;;;8.27;95.49;100654.55;1786032;78;21141;-41
2021/04/23 03:11:20;;;;;;;2.33;2.12;;;;;;;8.27;95.82;100651.28;1785451;80;21452;-41
2021/04/23 03:13:53;;;;;;;1.25;1.15;;;;;;;8.29;96.18;100642.87;1808289;78;21421;-43
2021/04/23 03:16:20;;;;;;;0.85;0.85;;;;;;;8.30;96.36;100644.50;1813410;78;21106;-42
2021/04/23 03:18:48;;;;;;;0.25;0.25;;;;;;;8.29;96.62;100650.49;1817402;78;21153;-42
2021/04/23 03:21:21;;;;;;;0.68;0.68;;;;;;;8.29;96.83;100644.23;1808812;78;21659;-40
2021/04/23 03:23:49;;;;;;;0.42;0.42;;;;;;;8.28;97.07;100657.00;1784949;78;21126;-42
2021/04/23 03:26:17;;;;;;;0.88;0.88;;;;;;;8.30;97.20;100664.92;1785086;80;21114;-41
2021/04/23 03:28:46;;;;;;;1.70;1.25;;;;;;;8.30;97.47;100661.65;1785887;78;21126;-42
2021/04/23 03:31:15;;;;;;;1.50;0.50;;;;;;;8.32;97.79;100670.94;1785479;78;20980;-42
2021/04/23 03:33:43;;;;;;;1.30;0.40;;;;;;;8.33;98.12;100653.50;1804470;78;21022;-42
2021/04/23 03:36:12;;;;;;;0.45;0.40;;;;;;;8.36;98.36;100655.73;1817344;78;21106;-41
2021/04/23 03:38:43;;;;;;;0.90;0.90;;;;;;;8.38;98.61;100658.98;1794032;78;21417;-42
2021/04/23 03:41:18;;;;;;;5.00;1.55;;;;;;;8.37;98.79;100661.44;1811100;78;21066;-41
2021/04/23 03:43:45;;;;;;;0.62;0.62;;;;;;;8.37;98.98;100657.36;1816886;78;21608;-42
2021/04/23 03:46:13;;;;;;;0.90;0.75;;;;;;;8.38;99.20;100650.82;1808114;78;21142;-43
2021/04/23 03:48:43;;;;;;;1.60;1.35;;;;;;;8.38;99.43;100652.19;1815056;78;21115;-41
2021/04/23 03:51:12;;;;;;;1.15;1.15;;;;;;;8.38;99.63;100648.09;1791738;78;21130;-42
2021/04/23 03:53:40;;;;;;;0.72;0.72;;;;;;;8.37;99.87;100652.73;1785671;78;21118;-42
2021/04/23 03:56:07;;;;;;;2.30;0.28;;;;;;;8.39;100.00;100657.92;1785628;80;21047;-41
2021/04/23 03:58:35;;;;;;;2.35;2.15;;;;;;;8.39;100.00;100661.50;1786373;78;21126;-42
2021/04/23 04:01:13;;;;;;;0.90;0.62;;;;;;;8.40;100.00;100665.03;1785398;80;21070;-42
2021/04/23 04:03:51;;;;;;;1.20;0.70;;;;;;;8.45;100.00;100674.61;1831673;76;22687;-42
2021/04/23 04:06:20;;;;;;;1.95;1.75;;;;;;;8.42;100.00;100673.77;1721606;82;21158;-41
2021/04/23 04:08:49;;;;;;;0.75;0.75;;;;;;;8.44;100.00;100681.14;1724814;83;21672;-41
2021/04/23 04:11:19;;;;;;;2.00;1.25;;;;;;;8.46;100.00;100685.80;1722330;82;21127;-42
2021/04/23 04:13:48;;;;;;;1.17;0.70;;;;;;;8.49;100.00;100683.91;1724750;83;21115;-41
2021/04/23 04:16:16;;;;;;;0.80;0.80;;;;;;;8.50;100.00;100678.73;1721924;83;21698;-41
2021/04/23 04:18:44;;;;;;;0.90;0.70;;;;;;;8.51;100.00;100680.39;1724789;81;21122;-42
2021/04/23 04:21:12;;;;;;;0.93;0.90;;;;;;;8.52;100.00;100675.21;1724799;83;21453;-41
2021/04/23 04:23:39;;;;;;;3.12;1.20;;;;;;;8.51;100.00;100678.22;1724523;81;21031;-42
2021/04/23 04:26:07;;;;;;;1.45;0.98;;;;;;;8.49;100.00;100684.45;1722159;83;21110;-41
2021/04/23 04:28:34;;;;;;;3.25;1.30;;;;;;;8.47;100.00;100689.34;1724779;81;21438;-41
2021/04/23 04:31:02;;;;;;;0.62;0.53;;;;;;;8.46;100.00;100690.43;1733028;82;21600;-41
2021/04/23 04:33:31;;;;;;;1.55;1.30;;;;;;;8.47;100.00;100694.23;1728220;81;21150;-42
2021/04/23 04:36:00;;;;;;;2.20;1.17;;;;;;;8.51;100.00;100695.91;1732823;82;21030;-41
2021/04/23 04:38:28;;;;;;;1.80;0.57;;;;;;;8.55;100.00;100689.66;1733051;81;21133;-41
2021/04/23 04:40:56;;;;;;;2.05;1.00;;;;;;;8.63;100.00;100686.19;1733096;82;21468;-43
2021/04/23 04:43:24;;;;;;;0.85;0.78;;;;;;;8.72;100.00;100685.98;1732873;81;21165;-41
2021/04/23 04:45:51;;;;;;;0.40;0.40;;;;;;;8.81;100.00;100688.52;1733054;82;21153;-42
2021/04/23 04:48:19;;;;;;;1.90;1.55;;;;;;;8.91;100.00;100688.58;1732859;81;21142;-41
2021/04/23 04:50:54;;;;;;;1.55;1.45;;;;;;;9.06;100.00;100688.41;1732753;82;21114;-42
2021/04/23 04:53:22;;;;;;;3.25;1.02;;;;;;;9.25;100.00;100692.34;1732920;81;21162;-41
2021/04/23 04:55:52;;;;;;;0.68;0.65;;;;;;;9.43;100.00;100687.78;1732906;82;21158;-42
2021/04/23 04:58:22;;;;;;;1.15;1.15;;;;;;;9.61;100.00;100688.40;1732717;81;21133;-42
2021/04/23 05:00:50;;;;;;;2.98;0.53;;;;;;;9.73;99.76;100686.26;1732958;82;21592;-41
2021/04/23 05:03:17;;;;;;;2.02;1.60;;;;;;;9.84;99.22;100693.41;1747883;80;21414;-41
2021/04/23 05:05:45;;;;;;;2.62;0.75;;;;;;;9.94;98.70;100693.98;1756508;81;21115;-41
2021/04/23 05:08:12;;;;;;;1.17;1.07;;;;;;;10.04;98.12;100707.65;1723996;81;21175;-43
2021/04/23 05:10:40;;;;;;;1.70;1.60;;;;;;;10.15;97.54;100701.66;1721203;83;21203;-42
2021/04/23 05:13:08;;;;;;;1.65;1.07;;;;;;;10.27;96.89;100698.13;1721098;81;21225;-41
2021/04/23 05:15:35;;;;;;;0.98;0.88;;;;;;;10.39;96.21;100697.09;1740856;81;21110;-42
2021/04/23 05:18:03;;;;;;;0.20;0.20;;;;;;;10.47;95.32;100702.81;1756388;80;21294;-41
2021/04/23 05:20:30;;;;;;;1.98;1.00;;;;;;;10.54;94.38;100695.72;1756320;81;21451;-42
2021/04/23 05:22:57;;;;;;;0.82;0.82;;;;;;;10.63;93.86;100698.19;1755592;80;21600;-42
2021/04/23 05:25:26;;;;;;;1.55;0.72;;;;;;;10.75;93.56;100695.97;1728280;81;21170;-41
2021/04/23 05:27:54;;;;;;;1.95;1.22;;;;;;;10.94;93.26;100694.05;1755693;80;21135;-42
2021/04/23 05:30:28;;;;;;;1.37;1.27;;;;;;;11.12;92.21;100703.03;1756520;81;21147;-41
2021/04/23 05:32:56;;;;;;;4.55;2.08;;;;;;;11.26;91.38;100700.55;1755927;80;21119;-41
2021/04/23 05:35:26;;;;;;;0.57;0.55;;;;;;;11.40;90.61;100707.08;1756503;80;21577;-41
2021/04/23 05:37:54;;;;;;;1.42;1.40;;;;;;;11.52;89.88;100707.30;1756399;80;21569;-41
2021/04/23 05:40:28;;;;;;;1.67;1.57;;;;;;;11.66;89.31;100708.89;1752728;81;21179;-42
2021/04/23 05:42:56;;;;;;;1.42;0.98;;;;;;;11.81;88.62;100714.30;1756544;80;21135;-41
2021/04/23 05:45:24;;;;;;;0.57;0.57;;;;;;;12.01;87.49;100722.42;1756535;81;21774;-42
2021/04/23 05:47:52;;;;;;;0.82;0.65;;;;;;;12.16;86.60;100715.23;1756240;81;21584;-42
2021/04/23 05:50:20;;;;;;;0.95;0.95;;;;;;;12.24;85.17;100728.35;1752006;81;21442;-42
2021/04/23 05:52:47;;;;;;;1.37;0.80;;;;;;;12.27;84.52;100723.67;1754366;81;20976;-42
2021/04/23 05:55:18;;;;;;;1.62;1.07;;;;;;;12.26;83.26;100726.13;1756257;81;21725;-42
2021/04/23 05:57:45;;;;;;;0.98;0.98;;;;;;;12.24;82.71;100722.88;1748879;81;21140;-41
2021/04/23 06:00:18;;;;;;;1.75;0.95;;;;;;;12.26;82.25;100727.49;1768111;80;21150;-44
2021/04/23 06:02:48;;;;;;;4.28;0.53;;;;;;;12.25;81.78;100729.42;1724904;82;21151;-42
2021/04/23 06:05:17;;;;;;;0.50;0.35;;;;;;;12.21;81.57;100728.89;1723903;82;21452;-42
2021/04/23 06:07:44;;;;;;;1.47;1.07;;;;;;;12.19;81.35;100726.98;1724612;82;21561;-41
2021/04/23 06:10:13;;;;;;;2.05;0.75;;;;;;;12.17;81.32;100734.69;1732273;81;21149;-42
2021/04/23 06:12:42;;;;;;;1.02;1.02;;;;;;;12.13;81.36;100733.05;1732133;82;21162;-42
2021/04/23 06:15:12;;;;;;;1.47;1.30;;;;;;;12.15;81.90;100733.59;1732139;82;21161;-43
2021/04/23 06:17:39;;;;;;;1.40;1.27;;;;;;;12.21;81.35;100731.64;1732224;82;21146;-42
2021/04/23 06:20:13;;;;;;;1.20;1.05;;;;;;;12.22;81.16;100730.55;1732501;81;21119;-42
2021/04/23 06:22:41;;;;;;;0.90;0.90;;;;;;;12.21;80.89;100727.52;1732081;81;21169;-43
2021/04/23 06:25:11;;;;;;;0.50;0.50;;;;;;;12.20;80.02;100735.48;1744370;81;21518;-41
2021/04/23 06:27:40;;;;;;;3.33;1.70;;;;;;;12.16;80.05;100739.89;1749551;81;21154;-42
2021/04/23 06:30:14;;;;;;;2.00;0.82;;;;;;;12.12;79.82;100743.75;1750691;81;21643;-41
2021/04/23 06:32:43;;;;;;;0.78;0.78;;;;;;;12.07;79.80;100743.78;1722008;82;21592;-41
2021/04/23 06:35:17;;;;;;;1.00;1.00;;;;;;;12.11;80.07;100746.77;1721076;82;20980;-42
2021/04/23 06:37:44;;;;;;;1.02;0.80;;;;;;;12.14;80.09;100744.83;1723790;81;21138;-41
2021/04/23 06:40:14;;;;;;;1.50;1.22;;;;;;;12.20;80.30;100744.52;1723147;83;21186;-41
2021/04/23 06:42:42;;;;;;;1.22;1.17;;;;;;;12.25;80.29;100751.34;1723821;83;21170;-42
2021/04/23 06:45:13;;;;;;;1.50;1.45;;;;;;;12.31;80.29;100758.97;1723918;83;21146;-41
2021/04/23 06:47:42;;;;;;;1.20;1.10;;;;;;;12.35;79.45;100755.94;1723745;83;21157;-42
2021/04/23 06:50:12;;;;;;;2.15;1.95;;;;;;;12.41;79.08;100756.19;1763627;80;21183;-42
2021/04/23 06:52:40;;;;;;;0.50;0.50;;;;;;;12.45;78.79;100757.80;1758367;80;21231;-42
2021/04/23 06:55:09;;;;;;;1.15;0.82;;;;;;;12.45;78.52;100753.69;1723409;83;21118;-42
2021/04/23 06:57:36;;;;;;;4.95;1.50;;;;;;;12.46;78.19;100758.89;1722824;82;21126;-42
2021/04/23 07:00:07;;;;;;;1.98;0.72;;;;;;;12.43;77.72;100764.92;1720978;81;21146;-41
2021/04/23 07:02:34;;;;;;;2.15;0.82;;;;;;;12.39;77.88;100758.39;1718896;82;21128;-42
2021/04/23 07:05:03;;;;;;;0.78;0.78;;;;;;;12.37;77.80;100764.70;1719813;82;21165;-43
2021/04/23 07:07:32;;;;;;;0.65;0.65;;;;;;;12.32;75.80;100770.77;1722034;82;21123;-41
2021/04/23 07:09:59;;;;;;;0.75;0.68;;;;;;;12.02;74.44;100776.13;1747627;81;21157;-42
2021/04/23 07:12:26;;;;;;;1.27;1.07;;;;;;;11.67;73.63;100777.58;1749032;80;21139;-43
2021/04/23 07:14:54;;;;;;;0.75;0.68;;;;;;;11.28;73.83;100785.90;1749489;80;21415;-41
2021/04/23 07:17:22;;;;;;;0.53;0.53;;;;;;;10.97;74.32;100793.30;1749092;81;21794;-41
2021/04/23 07:19:49;;;;;;;2.05;0.82;;;;;;;10.77;75.15;100796.84;1723475;83;21512;-40
2021/04/23 07:22:17;;;;;;;0.70;0.70;;;;;;;10.61;75.40;100799.27;1724129;82;21177;-42
2021/04/23 07:24:45;;;;;;;0.80;0.72;;;;;;;10.42;75.50;100797.61;1723632;81;21509;-43
2021/04/23 07:27:12;;;;;;;0.93;0.65;;;;;;;10.24;76.13;100799.72;1720882;83;21170;-41
2021/04/23 07:29:43;;;;;;;0.55;0.55;;;;;;;10.12;76.52;100801.87;1723411;81;21150;-42
2021/04/23 07:32:11;;;;;;;0.55;0.55;;;;;;;10.01;77.09;100802.91;1723472;83;21137;-41
2021/04/23 07:34:39;;;;;;;1.67;1.57;;;;;;;9.96;76.82;100807.80;1692039;83;21130;-42
2021/04/23 07:37:07;;;;;;;0.20;0.20;;;;;;;9.89;76.89;100797.14;1694798;84;21553;-42
2021/04/23 07:39:34;;;;;;;1.37;1.27;;;;;;;9.85;78.12;100796.57;1713714;83;21182;-45
2021/04/23 07:42:02;;;;;;;1.52;0.40;;;;;;;9.85;78.21;100794.66;1694835;84;21169;-45
2021/04/23 07:44:29;;;;;;;1.65;0.82;;;;;;;9.83;78.50;100803.65;1692285;83;21153;-45
2021/04/23 07:46:57;;;;;;;0.95;0.57;;;;;;;9.92;78.90;100811.35;1694630;84;21130;-45
2021/04/23 07:49:25;;;;;;;2.00;1.50;;;;;;;10.08;78.91;100807.58;1729559;81;21137;-45
2021/04/23 07:51:53;;;;;;;1.15;0.37;;;;;;;10.24;79.04;100806.55;1731977;82;21911;-45
2021/04/23 07:54:20;;;;;;;0.90;0.75;;;;;;;10.39;78.45;100811.83;1700061;82;21126;-46
2021/04/23 07:56:47;;;;;;;0.47;0.47;;;;;;;10.54;78.54;100805.02;1700455;82;21181;-45
2021/04/23 07:59:15;;;;;;;2.22;1.35;;;;;;;10.68;78.50;100806.66;1731896;81;21018;-46
2021/04/23 08:01:43;;;;;;;0.75;0.68;;;;;;;10.76;77.29;100807.52;1724013;82;21153;-46
2021/04/23 08:04:10;;;;;;;0.10;0.10;;;;;;;10.78;76.33;100816.27;1700649;83;21142;-45
2021/04/23 08:06:37;;;;;;;0.70;0.70;;;;;;;10.69;76.48;100815.97;1726116;83;21158;-46
2021/04/23 08:09:05;;;;;;;0.62;0.62;;;;;;;10.65;75.78;100818.95;1726547;82;21182;-46
2021/04/23 08:11:35;;;;;;;0.98;0.98;;;;;;;10.61;75.71;100818.41;1714273;83;21141;-46
2021/04/23 08:14:03;;;;;;;0.80;0.75;;;;;;;10.54;75.96;100824.96;1713407;83;21126;-46
2021/04/23 08:16:32;;;;;;;0.23;0.15;;;;;;;10.49;75.83;100823.59;1726449;83;21150;-46
2021/04/23 08:18:59;;;;;;;0.40;0.40;;;;;;;10.51;75.37;100826.06;1726566;83;21114;-47
2021/04/23 08:21:27;;;;;;;0.30;0.30;;;;;;;10.56;75.47;100826.07;1726557;83;21504;-46
2021/04/23 08:23:56;;;;;;;2.67;0.57;;;;;;;10.60;75.44;100824.97;1697401;83;21182;-45
2021/04/23 08:26:25;;;;;;;1.62;0.30;;;;;;;10.59;76.17;100826.08;1697407;84;21126;-46
2021/04/23 08:28:53;;;;;;;0.23;0.23;;;;;;;10.56;76.30;100827.44;1697646;83;21158;-46
2021/04/23 08:31:23;;;;;;;0.75;0.20;;;;;;;10.58;76.57;100823.05;1717337;83;21158;-45
2021/04/23 08:33:51;;;;;;;0.42;0.42;;;;;;;10.61;77.02;100826.08;1726376;82;21134;-46
2021/04/23 08:36:19;;;;;;;0.10;0.10;;;;;;;10.63;76.95;100821.17;1726445;83;21082;-46
2021/04/23 08:38:47;;;;;;;0.23;0.23;;;;;;;10.63;76.55;100827.16;1726649;83;21089;-45
2021/04/23 08:41:16;;;;;;;0.13;0.13;;;;;;;10.63;76.03;100828.52;1725528;83;21138;-46
2021/04/23 08:43:43;;;;;;;1.37;1.15;;;;;;;10.62;75.79;100834.54;1726509;83;21166;-46
2021/04/23 08:46:12;;;;;;;0.72;0.72;;;;;;;10.61;75.79;100835.64;1726834;83;21146;-46
2021/04/23 08:48:40;;;;;;;0.23;0.23;;;;;;;10.58;76.30;100833.42;1726617;81;21114;-45
2021/04/23 08:51:08;;;;;;;0.42;0.42;;;;;;;10.54;76.00;100838.62;1725260;82;21147;-45
2021/04/23 08:53:37;;;;;;;0.28;0.23;;;;;;;10.45;75.29;100838.87;1706710;83;21126;-46
2021/04/23 08:56:06;;;;;;;0.72;0.72;;;;;;;10.41;74.84;100837.78;1724300;82;21158;-47
2021/04/23 08:58:33;;;;;;;3.55;0.98;;;;;;;10.36;74.29;100845.12;1681927;84;21171;-45
2021/04/23 09:01:01;;;;;;;1.20;0.70;;;;;;;10.28;73.90;100843.73;1712052;83;21488;-46
2021/04/23 09:03:29;;;;;;;1.70;1.60;;;;;;;10.22;73.97;100857.89;1714463;81;21166;-46
2021/04/23 09:06:20;;;;;;;0.82;0.82;;;;;;;10.16;74.07;100848.02;1778386;80;21156;-45
2021/04/23 09:09:03;;;;;;;0.53;0.53;;;;;;;10.12;74.02;100845.56;1781535;80;21111;-46
2021/04/23 09:11:39;;;;;;;0.57;0.57;;;;;;;10.08;74.79;100848.53;1780714;80;21106;-45
2021/04/23 09:14:14;;;;;;;0.00;0.00;;;;;;;10.08;74.91;100856.73;1788568;78;21125;-46
2021/04/23 09:16:56;;;;;;;0.47;0.30;;;;;;;10.06;74.47;100858.38;1759334;81;21481;-45
2021/04/23 09:19:31;;;;;;;0.35;0.35;;;;;;;10.00;74.24;100858.61;1802757;78;21529;-46
2021/04/23 09:22:05;;;;;;;0.78;0.75;;;;;;;9.94;73.74;100865.11;1788379;79;21434;-45
2021/04/23 09:24:37;;;;;;;0.28;0.28;;;;;;;9.86;74.17;100867.25;1773604;78;21109;-45
2021/04/23 09:27:14;;;;;;;2.08;1.87;;;;;;;9.84;74.17;100866.72;1788772;80;21160;-45
2021/04/23 09:29:43;;;;;;;0.93;0.65;;;;;;;9.86;74.34;100861.80;1788385;80;21114;-45
2021/04/23 09:32:19;;;;;;;0.50;0.50;;;;;;;9.90;74.42;100864.28;1788403;80;21129;-46
2021/04/23 09:34:58;;;;;;;1.02;0.40;;;;;;;9.97;74.12;100864.61;1763832;80;21022;-45
2021/04/23 09:37:31;;;;;;;0.60;0.60;;;;;;;10.02;73.80;100866.81;1790893;78;21401;-46
2021/04/23 09:40:15;;;;;;;1.27;0.85;;;;;;;10.08;74.00;100869.02;1788204;80;21540;-46
2021/04/23 09:42:51;;;;;;;0.20;0.20;;;;;;;10.16;73.99;100870.41;1787469;78;21129;-46
2021/04/23 09:45:22;;;;;;;0.30;0.30;;;;;;;10.19;73.73;100865.26;1788797;80;21162;-45
2021/04/23 09:47:50;;;;;;;0.10;0.10;;;;;;;10.22;73.75;100872.09;1785208;80;21583;-46
2021/04/23 09:50:18;;;;;;;0.20;0.20;;;;;;;10.23;73.19;100858.70;1779207;80;21164;-46
2021/04/23 09:52:54;;;;;;;0.33;0.33;;;;;;;10.27;73.28;100858.45;1789156;78;21122;-46
2021/04/23 09:55:27;;;;;;;1.40;0.55;;;;;;;10.32;73.48;100847.03;1788590;80;21190;-46
2021/04/23 09:57:57;;;;;;;2.27;0.57;;;;;;;10.45;73.88;100844.88;1761862;79;21130;-45
2021/04/23 10:00:28;;;;;;;1.50;0.45;;;;;;;10.55;74.03;100842.17;1787299;80;21564;-45
2021/04/23 10:02:57;;;;;;;0.45;0.42;;;;;;;10.68;73.15;100845.77;1728939;81;21169;-46
2021/04/23 10:05:38;;;;;;;0.75;0.37;;;;;;;10.75;72.58;100840.02;1790214;79;21165;-46
2021/04/23 10:08:24;;;;;;;1.27;0.25;;;;;;;10.81;70.98;100849.08;1793819;78;21212;-45
2021/04/23 10:10:57;;;;;;;0.47;0.47;;;;;;;10.79;70.22;100845.23;1754052;81;21174;-46
2021/04/23 10:13:32;;;;;;;3.77;0.55;;;;;;;10.78;70.40;100839.50;1739935;81;21468;-46
2021/04/23 10:16:00;;;;;;;0.55;0.55;;;;;;;10.76;70.10;100843.05;1737678;82;21496;-45
2021/04/23 10:18:32;;;;;;;1.22;0.55;;;;;;;10.73;70.00;100845.78;1725808;81;21413;-45
2021/04/23 10:21:00;;;;;;;0.00;0.00;;;;;;;10.71;70.12;100853.42;1725909;83;21162;-45
2021/04/23 10:23:29;;;;;;;0.93;0.88;;;;;;;10.68;70.17;100851.23;1729160;81;21679;-45
2021/04/23 10:25:56;;;;;;;0.28;0.28;;;;;;;10.62;70.36;100853.67;1740364;82;21177;-46
2021/04/23 10:28:25;;;;;;;0.47;0.17;;;;;;;10.51;69.79;100856.12;1669468;82;21126;-45
2021/04/23 10:30:54;;;;;;;0.95;0.40;;;;;;;10.37;69.54;100849.51;1740329;82;21125;-45
2021/04/23 10:33:23;;;;;;;0.15;0.15;;;;;;;10.24;69.96;100855.72;1739991;81;21137;-45
2021/04/23 10:35:54;;;;;;;0.62;0.62;;;;;;;10.13;69.80;100852.65;1739981;82;21133;-45
2021/04/23 10:38:29;;;;;;;0.68;0.60;;;;;;;10.00;69.72;100842.23;1740560;81;21168;-45
2021/04/23 10:41:04;;;;;;;0.00;0.00;;;;;;;9.90;70.03;100821.97;1731233;81;21158;-44
2021/04/23 10:43:33;;;;;;;0.03;0.03;;;;;;;9.88;71.51;100821.41;1740429;81;21131;-45
2021/04/23 10:46:11;;;;;;;0.65;0.28;;;;;;;9.85;71.71;100824.68;1727538;82;21165;-45
2021/04/23 10:48:43;;;;;;;0.20;0.20;;;;;;;9.83;72.01;100818.66;1742359;80;21187;-44
2021/04/23 10:51:25;;;;;;;0.00;0.00;;;;;;;9.81;72.17;100820.02;1729135;82;21150;-44
2021/04/23 10:54:05;;;;;;;0.05;0.05;;;;;;;9.78;72.12;100811.81;1729246;82;21135;-44
2021/04/23 10:56:37;;;;;;;0.20;0.20;;;;;;;9.77;72.86;100817.01;1739388;82;21572;-44
2021/04/23 10:59:35;;;;;;;0.30;0.30;;;;;;;9.78;72.98;100806.91;1759051;80;21226;-44
2021/04/23 11:02:16;;;;;;;0.08;0.08;;;;;;;9.79;73.13;100802.56;1759321;81;21142;-44
2021/04/23 11:04:58;;;;;;;0.28;0.28;;;;;;;9.82;74.13;100806.11;1748398;80;21011;-44
2021/04/23 11:07:26;;;;;;;;;;;;;;;9.80;74.43;100811.56;1735036;82;21161;-44
2021/04/23 11:09:57;;;;;;;0.93;0.78;;;;;;;9.82;74.96;100803.94;1732277;82;20240;-44
2021/04/23 11:12:25;;;;;;;1.12;0.50;;;;;;;9.84;74.52;100805.31;1732274;82;21172;-44
2021/04/23 11:15:16;;;;;;;0.33;0.28;;;;;;;9.85;73.39;100811.03;1732265;81;21166;-44
2021/04/23 11:17:44;;;;;;;1.67;1.50;;;;;;;9.82;73.29;100810.76;1732138;81;21134;-44
2021/04/23 11:20:32;;;;;;;0.00;0.00;;;;;;;9.70;73.13;100816.42;1700798;82;21162;-44
2021/04/23 11:23:00;;;;;;;0.00;0.00;;;;;;;9.64;73.25;100807.39;1727033;82;21588;-44
2021/04/23 11:25:28;;;;;;;0.10;0.10;;;;;;;9.59;72.89;100804.61;1703099;84;21402;-44
2021/04/23 11:28:07;;;;;;;0.35;0.33;;;;;;;9.57;73.37;100797.77;1703003;82;21137;-44
2021/04/23 11:31:06;;;;;;;0.15;0.15;;;;;;;9.55;73.92;100798.60;1732013;82;21217;-44
2021/04/23 11:33:54;;;;;;;0.33;0.33;;;;;;;9.59;74.07;100795.61;1732167;81;21129;-44
2021/04/23 11:36:31;;;;;;;0.35;0.35;;;;;;;9.67;73.95;100793.77;1732796;81;21133;-44
2021/04/23 11:39:02;;;;;;;0.10;0.10;;;;;;;9.73;73.52;100794.05;1744581;81;21181;-44
2021/04/23 11:41:30;;;;;;;0.30;0.30;;;;;;;9.78;73.41;100793.26;1725076;80;21161;-44
2021/04/23 11:43:57;;;;;;;0.30;0.30;;;;;;;9.85;73.46;100783.73;1730840;81;20991;-40
2021/04/23 11:46:49;;;;;;;0.00;0.00;;;;;;;9.95;73.22;100778.05;1732040;80;21180;-41